Time;durP1;ratioP1;P1;durP2;ratioP2;P2;SDS_P1;SDS_P2;PMS_P1;PMS_P2;Temp;Humidity;BMP_temperature;BMP_pressure;BME280_temperature;BME280_humidity;BME280_pressure;Samples;Min_cycle;Max_cycle;Signal;HPM_P1;HPM_P2
2021/10/21 00:00:46;;;;;;;;;1.00;0.75;;;;;15.83;59.98;98971.06;5078502;28;45457;-83
2021/10/21 00:03:12;;;;;;;;;1.00;0.00;;;;;15.81;59.61;98950.16;5056653;28;45879;-83
2021/10/21 00:05:37;;;;;;;;;2.50;0.00;;;;;15.57;59.69;98908.19;5074316;28;45573;-82
2021/10/21 00:08:03;;;;;;;;;2.00;0.00;;;;;15.71;59.14;98946.94;5073746;28;45686;-84
2021/10/21 00:10:29;;;;;;;;;1.00;1.00;;;;;15.68;59.60;98943.84;5073798;28;45802;-83
2021/10/21 00:12:54;;;;;;;;;2.00;0.75;;;;;15.65;58.58;98910.75;5073993;28;45707;-83
2021/10/21 00:15:19;;;;;;;;;3.00;0.50;;;;;15.60;58.53;98904.38;5055594;28;45812;-79
2021/10/21 00:17:45;;;;;;;;;1.00;0.00;;;;;15.64;58.37;98903.00;5073702;28;46830;-84
2021/10/21 00:20:11;;;;;;;;;0.75;0.75;;;;;15.66;58.78;98916.81;5038727;28;46093;-83
2021/10/21 00:22:37;;;;;;;;;2.25;1.00;;;;;15.82;58.44;98972.91;5072449;28;45601;-85
2021/10/21 00:25:04;;;;;;;;;1.00;0.00;;;;;15.82;58.01;98938.56;5055410;28;45626;-85
2021/10/21 00:30:52;;;;;;;;;0.75;0.00;;;;;15.70;57.71;98955.88;5074065;28;45925;-86
2021/10/21 00:33:17;;;;;;;;;2.50;0.00;;;;;15.76;57.71;98972.81;5074095;28;45531;-85
2021/10/21 00:35:43;;;;;;;;;0.75;0.00;;;;;15.76;57.76;98965.69;5055792;28;45881;-84
2021/10/21 00:38:08;;;;;;;;;1.75;0.50;;;;;15.77;58.13;98985.00;5057895;28;47890;-85
2021/10/21 00:40:34;;;;;;;;;0.50;0.00;;;;;15.62;57.89;98994.75;5058991;28;47147;-85
2021/10/21 00:46:21;;;;;;;;;1.75;0.75;;;;;15.71;57.52;98965.44;5076905;28;45761;-84
2021/10/21 00:48:46;;;;;;;;;0.00;0.00;;;;;15.68;58.56;98949.97;5076809;28;45815;-84
2021/10/21 00:51:14;;;;;;;;;0.75;0.00;;;;;15.76;58.66;98980.75;5076904;28;45565;-84
2021/10/21 00:53:40;;;;;;;;;1.00;0.00;;;;;15.64;58.62;98998.84;5058626;28;45579;-85
2021/10/21 00:56:08;;;;;;;;;1.75;0.00;;;;;15.65;58.68;98973.28;5058978;28;45894;-85
2021/10/21 00:58:34;;;;;;;;;0.50;0.00;;;;;15.69;57.52;98971.91;5077223;28;46618;-84
2021/10/21 01:01:00;;;;;;;;;0.00;0.00;;;;;15.57;57.28;99005.03;5076696;28;45978;-84
2021/10/21 01:03:27;;;;;;;;;0.00;0.00;;;;;15.40;57.28;98965.56;5076905;28;45724;-84
2021/10/21 01:05:52;;;;;;;;;1.00;0.00;;;;;15.51;56.68;99001.25;5076949;28;45542;-84
2021/10/21 01:08:18;;;;;;;;;1.25;0.00;;;;;15.38;57.23;98972.03;5076728;28;46627;-83
2021/10/21 01:10:44;;;;;;;;;0.00;0.00;;;;;15.51;56.72;99002.09;5076484;28;45670;-81
2021/10/21 01:16:32;;;;;;;;;0.00;0.00;;;;;15.47;56.82;99039.56;5074981;28;45657;-87
2021/10/21 01:18:58;;;;;;;;;0.00;0.00;;;;;15.54;56.51;99029.97;5057849;28;48572;-85
2021/10/21 01:21:23;;;;;;;;;1.00;0.00;;;;;15.43;56.58;99023.28;5076701;28;46467;-84
2021/10/21 01:23:49;;;;;;;;;0.00;0.00;;;;;15.41;56.28;99046.38;5058993;28;45586;-84
2021/10/21 01:26:14;;;;;;;;;0.00;0.00;;;;;15.33;56.26;99078.09;5059124;28;45566;-84
2021/10/21 01:28:41;;;;;;;;;0.75;0.00;;;;;15.45;56.16;99112.81;5059217;28;47860;-81
2021/10/21 01:31:07;;;;;;;;;1.00;0.00;;;;;15.22;56.14;99067.16;5077267;28;45857;-83
2021/10/21 01:33:34;;;;;;;;;0.00;0.00;;;;;15.36;55.84;99098.88;5080304;28;45782;-83
2021/10/21 01:35:59;;;;;;;;;0.00;0.00;;;;;15.12;56.78;99070.03;5059335;28;45645;-82
2021/10/21 01:38:25;;;;;;;;;1.00;0.00;;;;;15.09;56.93;99047.47;5059348;28;46719;-85
2021/10/21 01:40:51;;;;;;;;;1.00;0.00;;;;;15.16;57.03;99142.56;5078670;28;45561;-84
2021/10/21 01:46:39;;;;;;;;;0.75;0.00;;;;;15.14;56.21;99155.09;5083791;28;45608;-84
2021/10/21 01:49:05;;;;;;;;;0.00;0.00;;;;;14.99;56.70;99130.47;5066202;28;47544;-83
2021/10/21 01:51:31;;;;;;;;;0.25;0.00;;;;;14.82;56.73;99150.81;5066872;28;48005;-86
2021/10/21 01:53:56;;;;;;;;;0.00;0.00;;;;;15.02;56.92;99153.84;5079685;28;45620;-83
2021/10/21 01:56:23;;;;;;;;;0.00;0.00;;;;;14.92;56.90;99134.78;5059664;28;45810;-86
2021/10/21 01:58:49;;;;;;;;;0.00;0.00;;;;;14.83;56.81;99170.91;5058287;28;48609;-84
2021/10/21 02:01:14;;;;;;;;;0.00;0.00;;;;;14.91;56.56;99181.41;5058227;28;47075;-86
2021/10/21 02:03:39;;;;;;;;;1.00;0.00;;;;;14.88;56.62;99252.97;5076564;28;45635;-84
2021/10/21 02:06:05;;;;;;;;;0.00;0.00;;;;;14.61;55.93;99146.13;5077057;28;45850;-85
2021/10/21 02:08:30;;;;;;;;;0.00;0.00;;;;;14.75;56.13;99218.41;5083013;28;45654;-86
2021/10/21 02:10:56;;;;;;;;;0.00;0.00;;;;;14.53;56.21;99180.41;5063819;28;46875;-84
2021/10/21 02:16:43;;;;;;;;;1.00;0.00;;;;;14.64;55.31;99210.84;5077781;27;45657;-89
2021/10/21 02:19:08;;;;;;;;;0.00;0.00;;;;;14.62;55.50;99353.38;5079361;28;45645;-83
2021/10/21 02:21:34;;;;;;;;;0.00;0.00;;;;;14.64;55.01;99359.28;5079342;28;45369;-85
2021/10/21 02:24:00;;;;;;;;;1.50;0.00;;;;;14.59;55.55;99247.44;5061652;28;45460;-87
2021/10/21 02:26:25;;;;;;;;;0.00;0.00;;;;;14.34;55.23;99215.00;5077202;28;45675;-86
2021/10/21 02:32:12;;;;;;;;;0.00;0.00;;;;;14.40;55.56;99288.16;5075462;28;45947;-85
2021/10/21 02:34:38;;;;;;;;;0.00;0.00;;;;;14.21;55.79;99233.94;5076086;28;45486;-86
2021/10/21 02:37:03;;;;;;;;;0.25;0.00;;;;;14.30;55.98;99366.53;5077217;28;45535;-84
2021/10/21 02:39:29;;;;;;;;;0.00;0.00;;;;;14.35;56.13;99326.50;5077106;28;46307;-86
2021/10/21 02:41:54;;;;;;;;;0.00;0.00;;;;;14.20;56.00;99281.53;5075775;28;45829;-90
2021/10/21 02:44:20;;;;;;;;;0.00;0.00;;;;;14.23;56.04;99324.19;5057395;28;45573;-85
2021/10/21 02:46:45;;;;;;;;;0.00;0.00;;;;;14.41;56.33;99346.97;5057070;28;45587;-82
2021/10/21 02:49:10;;;;;;;;;0.00;0.00;;;;;14.29;56.15;99364.88;5076364;28;45576;-87
2021/10/21 02:51:36;;;;;;;;;0.00;0.00;;;;;14.28;56.21;99373.75;5076946;28;46386;-86
2021/10/21 02:54:01;;;;;;;;;0.50;0.00;;;;;14.15;56.45;99361.03;5076792;28;46002;-86
2021/10/21 02:56:27;;;;;;;;;0.25;0.00;;;;;14.20;56.88;99419.34;5074231;28;45700;-86
2021/10/21 03:02:14;;;;;;;;;0.00;0.00;;;;;14.25;57.52;99480.25;5077127;28;45473;-84
2021/10/21 03:04:40;;;;;;;;;0.00;0.00;;;;;14.18;57.35;99484.53;5058659;28;45680;-84
2021/10/21 03:07:06;;;;;;;;;0.00;0.00;;;;;14.09;56.50;99485.47;5076435;28;45706;-86
2021/10/21 03:09:31;;;;;;;;;1.00;0.00;;;;;13.93;56.26;99521.47;5057520;28;48067;-89
2021/10/21 03:11:57;;;;;;;;;0.00;0.00;;;;;13.85;56.59;99502.00;5056768;28;47169;-86
2021/10/21 03:14:22;;;;;;;;;0.00;0.00;;;;;14.09;56.43;99575.03;5057336;28;45955;-82
2021/10/21 03:16:48;;;;;;;;;0.50;0.00;;;;;14.10;56.61;99575.84;5056612;28;45563;-84
2021/10/21 03:19:14;;;;;;;;;0.00;0.00;;;;;13.90;56.31;99564.72;5056661;28;46510;-86
2021/10/21 03:21:39;;;;;;;;;0.00;0.00;;;;;13.97;56.39;99644.78;5075143;28;45953;-87
2021/10/21 03:24:05;;;;;;;;;0.50;0.00;;;;;14.05;56.24;99630.81;5057293;28;45770;-84
2021/10/21 03:26:33;;;;;;;;;0.00;0.00;;;;;13.66;56.13;99689.09;5076060;28;45608;-85
2021/10/21 03:32:20;;;;;;;;;0.25;0.00;;;;;13.75;56.18;99667.16;5076097;28;45666;-85
2021/10/21 03:34:46;;;;;;;;;0.75;0.00;;;;;13.87;56.34;99752.00;5076137;28;45660;-83
2021/10/21 03:37:11;;;;;;;;;0.00;0.00;;;;;13.82;56.50;99728.72;5075269;28;45661;-84
2021/10/21 03:39:39;;;;;;;;;0.00;0.00;;;;;13.82;56.60;99696.31;5055855;28;46669;-81
2021/10/21 03:42:08;;;;;;;;;0.00;0.00;;;;;13.72;56.48;99780.63;5075133;28;46484;-84
2021/10/21 03:47:55;;;;;;;;;0.50;0.00;;;;;13.57;56.35;99857.63;5080597;28;45539;-82
2021/10/21 03:50:20;;;;;;;;;0.00;0.00;;;;;13.25;56.15;99816.78;5062837;28;47289;-83
2021/10/21 03:52:45;;;;;;;;;0.50;0.00;;;;;13.31;56.66;99868.00;5082023;28;45540;-82
2021/10/21 03:55:11;;;;;;;;;0.00;0.00;;;;;13.30;57.28;99937.38;5082041;28;45421;-84
2021/10/21 03:57:37;;;;;;;;;1.00;0.00;;;;;13.29;57.80;99867.31;5081008;28;45589;-83
2021/10/21 04:00:04;;;;;;;;;0.00;0.00;;;;;13.22;57.89;99895.19;5076998;28;46888;-83
2021/10/21 04:02:29;;;;;;;;;0.00;0.00;;;;;12.94;58.06;99852.19;5074380;28;46664;-84
2021/10/21 04:04:55;;;;;;;;;0.00;0.00;;;;;12.90;57.75;99874.47;5055986;28;45690;-84
2021/10/21 04:07:20;;;;;;;;;0.25;0.00;;;;;12.95;58.40;99874.88;5074314;28;45639;-81
2021/10/21 04:09:45;;;;;;;;;0.00;0.00;;;;;13.10;58.20;99928.66;5073816;28;45658;-83
2021/10/21 04:12:11;;;;;;;;;0.75;0.00;;;;;12.96;58.33;99921.22;5058218;28;47179;-83
2021/10/21 04:17:58;;;;;;;;;0.00;0.00;;;;;12.71;59.26;99919.16;5075198;28;45638;-84
2021/10/21 04:20:23;;;;;;;;;1.00;0.00;;;;;12.71;58.71;99917.38;5076279;28;46602;-84
2021/10/21 04:22:49;;;;;;;;;0.00;0.00;;;;;12.68;58.78;99935.22;5059399;28;47934;-82
2021/10/21 04:25:15;;;;;;;;;0.00;0.00;;;;;12.85;59.09;99951.09;5059628;28;45816;-84
2021/10/21 04:27:40;;;;;;;;;1.00;0.00;;;;;12.97;58.60;99957.06;5078062;28;45651;-86
2021/10/21 04:30:07;;;;;;;;;0.75;0.00;;;;;12.90;59.18;99948.09;5077704;28;45919;-86
2021/10/21 04:32:32;;;;;;;;;1.00;0.00;;;;;12.99;58.80;99979.63;5078074;28;46519;-86
2021/10/21 04:34:58;;;;;;;;;1.00;0.00;;;;;13.03;59.23;99982.78;5077699;28;45589;-86
2021/10/21 04:37:24;;;;;;;;;0.25;0.00;;;;;12.86;59.20;99976.44;5077846;28;45730;-85
2021/10/21 04:39:50;;;;;;;;;0.00;0.00;;;;;12.75;59.32;99970.47;5077731;28;46471;-83
2021/10/21 04:42:15;;;;;;;;;0.00;0.00;;;;;12.95;58.99;99966.91;5078594;28;46351;-84
2021/10/21 04:48:03;;;;;;;;;0.00;0.00;;;;;13.08;59.05;99998.97;5077899;28;45514;-85
2021/10/21 04:50:29;;;;;;;;;0.25;0.00;;;;;13.12;59.17;99994.31;5077265;28;45756;-84
2021/10/21 04:52:55;;;;;;;;;0.75;0.00;;;;;13.13;59.55;100023.09;5076848;28;45928;-85
2021/10/21 04:55:22;;;;;;;;;0.00;0.00;;;;;13.03;59.22;100019.59;5077217;28;45712;-83
2021/10/21 05:04:12;;;;;;;;;1.00;0.00;;;;;13.08;58.99;100059.47;5077693;28;45915;-82
2021/10/21 05:06:37;;;;;;;;;1.00;0.00;;;;;13.01;58.98;100048.66;5059934;28;45940;-86
2021/10/21 05:09:03;;;;;;;;;1.00;0.00;;;;;12.98;59.00;100067.38;5059494;28;45492;-85
2021/10/21 05:11:28;;;;;;;;;2.00;0.50;;;;;12.95;58.47;100067.66;5059499;28;47309;-82
2021/10/21 05:13:54;;;;;;;;;0.00;0.00;;;;;12.85;58.40;100079.94;5058732;28;47044;-84
2021/10/21 05:16:19;;;;;;;;;1.00;0.00;;;;;12.88;58.55;100066.53;5077095;28;45612;-84
2021/10/21 05:18:45;;;;;;;;;1.00;0.00;;;;;12.77;58.38;100050.03;5076547;28;45705;-84
2021/10/21 05:21:10;;;;;;;;;2.00;0.00;;;;;12.93;58.78;100080.09;5058377;28;47702;-83
2021/10/21 05:23:36;;;;;;;;;1.00;0.00;;;;;12.78;58.26;100052.53;5057492;28;46368;-84
2021/10/21 05:26:01;;;;;;;;;0.00;0.00;;;;;12.78;58.61;100059.59;5077249;28;46056;-86
2021/10/21 05:28:26;;;;;;;;;1.00;0.00;;;;;12.88;58.60;100082.31;5058126;28;45591;-86
2021/10/21 05:30:52;;;;;;;;;0.00;0.00;;;;;13.17;58.45;100139.41;5058074;28;47546;-82
2021/10/21 05:33:17;;;;;;;;;1.25;0.00;;;;;13.01;58.24;100105.69;5076951;28;46238;-82
2021/10/21 05:35:43;;;;;;;;;0.00;0.00;;;;;13.09;58.37;100126.88;5076584;28;45806;-83
2021/10/21 05:38:08;;;;;;;;;0.00;0.00;;;;;13.01;58.26;100111.78;5076764;28;45677;-83
2021/10/21 05:40:34;;;;;;;;;0.75;0.00;;;;;13.05;58.47;100120.25;5076310;28;45721;-83
2021/10/21 05:42:59;;;;;;;;;1.50;1.00;;;;;13.19;58.42;100164.56;5076624;28;45836;-83
2021/10/21 05:48:46;;;;;;;;;0.00;0.00;;;;;13.27;58.35;100158.66;5076669;28;45658;-86
2021/10/21 05:51:12;;;;;;;;;0.00;0.00;;;;;13.15;58.50;100136.06;5077350;28;45670;-86
2021/10/21 05:53:37;;;;;;;;;0.75;0.00;;;;;13.03;58.14;100130.88;5058831;28;48049;-85
2021/10/21 05:56:03;;;;;;;;;0.00;0.00;;;;;13.12;58.29;100121.38;5059063;28;45719;-87
2021/10/21 05:58:29;;;;;;;;;0.75;0.00;;;;;13.18;58.42;100135.78;5059251;28;45639;-87
2021/10/21 06:00:54;;;;;;;;;0.50;0.00;;;;;13.00;58.75;100117.19;5059646;28;47495;-86
2021/10/21 06:03:19;;;;;;;;;0.25;0.00;;;;;13.23;58.70;100162.50;5078882;28;45706;-85
2021/10/21 06:05:45;;;;;;;;;1.00;1.00;;;;;13.01;59.31;100121.47;5065067;28;45682;-86
2021/10/21 06:08:10;;;;;;;;;2.75;2.00;;;;;13.23;59.38;100154.59;5083770;28;45554;-86
2021/10/21 06:10:36;;;;;;;;;1.25;1.00;;;;;13.12;59.41;100152.13;5079956;28;45769;-88
2021/10/21 06:13:01;;;;;;;;;1.00;1.00;;;;;13.12;59.38;100158.19;5077033;28;46534;-84
2021/10/21 06:18:48;;;;;;;;;1.75;0.50;;;;;13.16;59.56;100164.03;5075618;28;45676;-87
2021/10/21 06:21:20;;;;;;;;;1.75;1.75;;;;;13.27;59.72;100196.31;5058063;28;48422;-82
2021/10/21 06:23:46;;;;;;;;;0.75;0.75;;;;;13.27;59.91;100206.84;5075720;28;45655;-83
2021/10/21 06:26:13;;;;;;;;;0.25;0.00;;;;;13.21;60.20;100188.13;5076084;28;45408;-80
2021/10/21 06:28:38;;;;;;;;;2.00;2.00;;;;;13.25;60.43;100216.66;5075843;28;45941;-82
2021/10/21 06:31:03;;;;;;;;;1.25;1.00;;;;;13.24;60.24;100220.25;5075609;28;45826;-79
2021/10/21 06:33:29;;;;;;;;;1.50;1.00;;;;;13.24;60.24;100214.97;5075610;28;46118;-79
2021/10/21 06:35:54;;;;;;;;;1.00;0.00;;;;;13.25;61.13;100216.66;5075796;28;45561;-78
2021/10/21 06:38:20;;;;;;;;;1.25;1.00;;;;;13.27;60.92;100220.00;5075440;28;45531;-81
2021/10/21 06:40:45;;;;;;;;;0.00;0.00;;;;;13.26;60.78;100214.84;5075641;28;45561;-82
2021/10/21 06:43:11;;;;;;;;;1.75;1.00;;;;;13.26;60.91;100228.84;5075553;28;46593;-81
2021/10/21 06:49:00;;;;;;;;;2.25;1.00;;;;;13.23;60.86;100230.91;5075295;28;45763;-85
2021/10/21 06:51:27;;;;;;;;;1.00;1.00;;;;;13.25;61.09;100232.44;5074723;28;46644;-78
2021/10/21 06:53:53;;;;;;;;;1.75;0.00;;;;;13.27;61.50;100233.16;5074106;28;47084;-79
2021/10/21 06:56:19;;;;;;;;;2.00;1.00;;;;;13.21;61.54;100238.94;5074275;28;45518;-79
2021/10/21 06:58:44;;;;;;;;;0.25;0.00;;;;;13.26;61.32;100249.88;5074379;28;45784;-80
2021/10/21 07:04:31;;;;;;;;;1.00;1.00;;;;;13.25;61.40;100255.28;5077128;28;45750;-82
2021/10/21 07:06:59;;;;;;;;;1.75;0.50;;;;;13.23;61.64;100251.94;5058831;28;45669;-81
2021/10/21 07:09:25;;;;;;;;;2.00;1.00;;;;;13.18;61.84;100260.25;5076354;28;45593;-78
2021/10/21 07:11:51;;;;;;;;;1.50;1.00;;;;;13.22;61.99;100266.09;5074974;28;45585;-84
2021/10/21 07:14:16;;;;;;;;;2.00;2.00;;;;;13.22;61.60;100280.06;5074508;28;46102;-78
2021/10/21 07:16:42;;;;;;;;;1.75;1.25;;;;;13.22;61.54;100279.25;5074905;28;45606;-82
2021/10/21 07:19:07;;;;;;;;;2.75;1.00;;;;;13.20;61.87;100284.63;5074273;28;45627;-81
2021/10/21 07:21:33;;;;;;;;;2.25;1.00;;;;;13.19;61.55;100277.69;5074191;28;46479;-80
2021/10/21 07:23:59;;;;;;;;;4.00;1.00;;;;;13.19;61.98;100276.84;5073999;28;46831;-80
2021/10/21 07:26:24;;;;;;;;;5.00;2.00;;;;;13.18;61.68;100286.53;5055878;28;45684;-78
2021/10/21 07:28:49;;;;;;;;;4.75;1.00;;;;;13.20;62.00;100302.19;5074634;28;45613;-79
2021/10/21 07:34:38;;;;;;;;;1.75;1.00;;;;;13.21;61.93;100299.44;5073983;28;45838;-77
2021/10/21 07:37:03;;;;;;;;;1.00;0.00;;;;;13.18;62.03;100301.50;5074380;28;45829;-82
2021/10/21 07:39:29;;;;;;;;;1.00;0.50;;;;;13.25;61.88;100311.34;5074448;28;45685;-76
2021/10/21 07:41:54;;;;;;;;;3.50;0.00;;;;;13.26;61.69;100326.19;5073948;28;46364;-79
2021/10/21 07:44:20;;;;;;;;;3.75;1.00;;;;;13.25;62.29;100321.03;5073742;28;45952;-78
2021/10/21 07:46:46;;;;;;;;;2.00;0.50;;;;;13.24;62.00;100311.47;5076244;28;45608;-82
2021/10/21 07:49:15;;;;;;;;;3.00;1.00;;;;;13.29;61.85;100338.22;5077589;28;45524;-81
2021/10/21 07:51:42;;;;;;;;;1.00;1.00;;;;;13.19;62.02;100311.88;5077973;28;45629;-81
2021/10/21 07:54:10;;;;;;;;;3.50;1.50;;;;;13.31;62.14;100347.66;5077412;28;45593;-80
2021/10/21 07:56:35;;;;;;;;;2.25;1.25;;;;;13.25;61.96;100345.56;5077650;28;45662;-79
2021/10/21 07:59:02;;;;;;;;;1.00;1.00;;;;;13.23;62.53;100350.09;5077736;28;45570;-81
2021/10/21 08:04:49;;;;;;;;;2.00;1.00;;;;;13.31;62.11;100366.09;5077612;28;45636;-82
2021/10/21 08:07:14;;;;;;;;;1.25;0.75;;;;;13.32;62.29;100370.38;5077752;28;45680;-79
2021/10/21 08:09:40;;;;;;;;;2.00;1.00;;;;;13.31;62.28;100368.72;5077866;28;45653;-80
2021/10/21 08:12:07;;;;;;;;;1.00;1.00;;;;;13.37;62.27;100372.63;5077902;28;45605;-80
2021/10/21 08:14:34;;;;;;;;;1.25;1.25;;;;;13.36;61.86;100378.84;5077193;28;46055;-82
2021/10/21 08:16:59;;;;;;;;;2.50;2.50;;;;;13.41;62.41;100376.66;5078300;28;45636;-83
2021/10/21 08:19:26;;;;;;;;;2.00;1.00;;;;;13.39;61.79;100370.66;5078005;28;45565;-78
2021/10/21 08:21:53;;;;;;;;;2.00;1.00;;;;;13.49;62.33;100378.63;5080207;28;45612;-77
2021/10/21 08:24:21;;;;;;;;;1.00;1.00;;;;;13.51;62.50;100382.78;5082023;28;46350;-78
2021/10/21 08:26:48;;;;;;;;;1.25;0.50;;;;;13.50;62.23;100388.16;5080807;28;45534;-79
2021/10/21 08:29:14;;;;;;;;;1.00;0.00;;;;;13.54;62.44;100389.56;5079982;28;45823;-77
2021/10/21 08:35:02;;;;;;;;;2.00;1.00;;;;;13.58;62.38;100397.06;5080728;28;45623;-78
2021/10/21 08:37:28;;;;;;;;;1.75;0.50;;;;;13.59;62.22;100393.47;5080189;28;45883;-81
2021/10/21 08:39:54;;;;;;;;;0.75;0.50;;;;;13.53;62.20;100382.66;5078380;28;45548;-77
2021/10/21 08:42:19;;;;;;;;;3.75;1.25;;;;;13.63;61.70;100397.50;5077435;28;46387;-80
2021/10/21 08:44:45;;;;;;;;;1.75;0.75;;;;;13.62;61.77;100366.03;5077084;28;46923;-79
2021/10/21 08:50:34;;;;;;;;;2.75;1.00;;;;;13.72;62.07;100383.53;5076601;28;45645;-81
2021/10/21 08:53:05;;;;;;;;;1.50;1.50;;;;;13.70;61.94;100374.13;5076497;28;46567;-80
2021/10/21 08:55:30;;;;;;;;;1.00;1.00;;;;;13.76;61.50;100400.75;5076664;28;46131;-82
2021/10/21 08:57:56;;;;;;;;;5.00;1.50;;;;;13.77;61.16;100380.47;5075251;28;45595;-78
2021/10/21 09:00:22;;;;;;;;;1.75;1.00;;;;;13.83;61.44;100385.22;5077158;28;45513;-80
2021/10/21 09:02:52;;;;;;;;;2.00;1.00;;;;;13.86;61.41;100388.44;5077276;28;45434;-80
2021/10/21 09:08:00;;;;;;;;;2.75;2.00;;;;;13.82;61.08;100359.84;5077673;28;45664;-84
2021/10/21 09:10:26;;;;;;;;;2.00;0.75;;;;;13.94;60.79;100385.09;5078577;28;45622;-84
2021/10/21 09:12:52;;;;;;;;;1.50;1.00;;;;;13.97;60.88;100378.75;5076352;28;46653;-77
2021/10/21 09:15:21;;;;;;;;;2.75;1.00;;;;;14.01;60.65;100386.22;5076066;28;46196;-82
2021/10/21 09:17:47;;;;;;;;;2.00;2.00;;;;;14.05;60.47;100382.34;5075951;28;45862;-80
2021/10/21 09:20:40;;;;;;;;;2.00;1.50;;;;;14.12;60.88;100393.19;5077153;28;45547;-75
2021/10/21 09:23:16;;;;;;;;;2.50;1.25;;;;;14.14;60.60;100391.25;5076600;28;47383;-86
2021/10/21 09:25:43;;;;;;;;;1.25;1.00;;;;;14.18;60.40;100390.84;5078581;28;45622;-78
2021/10/21 09:28:18;;;;;;;;;2.00;1.00;;;;;14.24;59.86;100390.28;5077851;28;45633;-77
2021/10/21 09:31:17;;;;;;;;;2.50;1.00;;;;;14.31;59.83;100387.91;5078415;28;45724;-81
2021/10/21 09:33:47;;;;;;;;;1.00;1.00;;;;;14.29;59.83;100376.69;4994261;28;46939;-85
2021/10/21 09:36:18;;;;;;;;;1.00;1.00;;;;;14.38;59.69;100398.78;4995242;28;47040;-84
2021/10/21 09:38:50;;;;;;;;;1.50;0.00;;;;;14.43;59.82;100400.03;4994846;28;45692;-80
2021/10/21 09:41:20;;;;;;;;;1.00;0.50;;;;;14.46;59.62;100391.00;4994811;28;45608;-78
2021/10/21 09:43:46;;;;;;;;;0.00;0.00;;;;;14.48;59.37;100373.22;4994010;28;46240;-80
2021/10/21 09:46:31;;;;;;;;;1.00;0.00;;;;;14.61;59.27;100385.19;4992715;28;46461;-79
2021/10/21 09:49:15;;;;;;;;;0.75;0.00;;;;;14.65;59.31;100397.09;4994297;28;45791;-83
2021/10/21 09:51:40;;;;;;;;;0.50;0.00;;;;;14.69;58.40;100410.81;4994833;28;45687;-82
2021/10/21 09:54:06;;;;;;;;;1.00;0.00;;;;;14.70;58.52;100392.25;4994707;28;46521;-83
2021/10/21 09:56:54;;;;;;;;;1.00;0.00;;;;;14.73;58.58;100391.13;4994592;28;46698;-77
2021/10/21 10:00:00;;;;;;;;;1.50;0.00;;;;;14.76;58.90;100400.56;4977471;28;45600;-84
2021/10/21 10:02:31;;;;;;;;;3.25;1.50;;;;;14.80;58.28;100407.22;4994059;28;45693;-85
2021/10/21 10:05:00;;;;;;;;;1.00;0.00;;;;;14.79;58.70;100397.66;4993312;28;47525;-86
2021/10/21 10:07:26;;;;;;;;;1.00;0.50;;;;;14.78;58.72;100388.06;4994553;28;46226;-82
2021/10/21 10:09:54;;;;;;;;;0.50;0.00;;;;;14.93;58.87;100395.41;5054953;28;45581;-85
2021/10/21 10:12:19;;;;;;;;;1.00;0.75;;;;;14.95;58.48;100395.25;5077812;28;45510;-83
2021/10/21 10:14:46;;;;;;;;;3.25;1.00;;;;;15.01;58.56;100394.66;5078165;28;45570;-87
2021/10/21 10:17:13;;;;;;;;;0.75;0.25;;;;;15.12;58.44;100405.06;5060962;28;47247;-87
2021/10/21 10:19:47;;;;;;;;;1.75;0.00;;;;;15.17;58.15;100407.28;5077231;28;45636;-84
2021/10/21 10:22:28;;;;;;;;;0.50;0.00;;;;;15.21;57.90;100433.25;5083579;28;45530;-89
2021/10/21 10:24:54;;;;;;;;;2.00;1.00;;;;;15.18;57.79;100401.00;5083761;28;45595;-83
2021/10/21 10:28:09;;;;;;;;;1.75;0.00;;;;;15.27;57.82;100416.00;5082958;28;45701;-85
2021/10/21 10:33:55;;;;;;;;;1.00;0.00;;;;;15.34;57.65;100390.69;5079482;28;45726;-86
2021/10/21 10:36:26;;;;;;;;;0.75;0.00;;;;;15.41;57.54;100391.78;5080262;28;46870;-81
2021/10/21 10:38:52;;;;;;;;;0.00;0.00;;;;;15.46;57.82;100394.81;5078270;28;47486;-82
2021/10/21 10:41:54;;;;;;;;;1.00;0.00;;;;;15.52;57.64;100400.38;5082651;28;45514;-83
2021/10/21 10:44:34;;;;;;;;;1.00;0.00;;;;;15.57;57.53;100404.38;5082791;28;45685;-79
2021/10/21 10:50:21;;;;;;;;;1.00;0.25;;;;;15.59;58.57;100416.47;5080881;28;45906;-78
2021/10/21 10:52:59;;;;;;;;;1.00;0.25;;;;;15.55;59.21;100395.78;5079215;28;45653;-79
2021/10/21 10:55:26;;;;;;;;;3.50;1.00;;;;;15.56;59.60;100406.19;5077766;28;45679;-82
2021/10/21 10:57:54;;;;;;;;;2.00;1.00;;;;;15.57;59.73;100407.84;5075637;28;46479;-83
2021/10/21 11:00:38;;;;;;;;;1.00;0.00;;;;;15.57;60.12;100404.38;5076508;28;47483;-84
2021/10/21 11:06:25;;;;;;;;;1.25;1.00;;;;;15.55;60.99;100393.94;5075323;28;45496;-83
2021/10/21 11:09:04;;;;;;;;;1.25;0.75;;;;;15.58;60.83;100401.59;5078431;28;46475;-82
2021/10/21 11:11:53;;;;;;;;;2.00;1.00;;;;;15.60;61.39;100399.63;5056962;28;46864;-84
2021/10/21 11:14:20;;;;;;;;;3.25;2.00;;;;;15.61;61.46;100401.28;5074960;28;45584;-82
2021/10/21 11:16:50;;;;;;;;;2.50;1.00;;;;;15.48;62.10;100388.41;5075024;28;45459;-85
2021/10/21 11:19:46;;;;;;;;;6.50;1.00;;;;;15.59;62.49;100400.63;5074744;28;46393;-84
2021/10/21 11:22:31;;;;;;;;;1.00;1.00;;;;;15.57;62.92;100380.63;5073901;28;45994;-80
2021/10/21 11:25:00;;;;;;;;;3.00;1.00;;;;;15.54;63.26;100387.03;5074922;28;45670;-83
2021/10/21 11:27:40;;;;;;;;;1.75;0.00;;;;;15.46;63.86;100378.97;5074950;28;45554;-84
2021/10/21 11:30:14;;;;;;;;;1.00;1.00;;;;;15.46;63.70;100381.59;5075994;28;45550;-85
2021/10/21 11:32:42;;;;;;;;;1.50;1.00;;;;;15.47;64.09;100383.28;5074879;28;46318;-85
2021/10/21 11:35:13;;;;;;;;;1.75;1.00;;;;;15.33;64.30;100354.72;5075222;28;45668;-83
2021/10/21 11:38:03;;;;;;;;;1.25;0.75;;;;;15.44;64.67;100376.47;5076005;28;45546;-78
2021/10/21 11:40:38;;;;;;;;;2.00;1.00;;;;;15.39;64.77;100376.06;5075546;28;45577;-86
2021/10/21 11:43:06;;;;;;;;;1.00;1.00;;;;;15.41;65.00;100376.78;5074977;28;47231;-86
2021/10/21 11:45:36;;;;;;;;;1.50;1.00;;;;;15.41;65.18;100381.22;5074601;28;45692;-81
2021/10/21 11:48:05;;;;;;;;;1.50;1.00;;;;;15.39;65.21;100377.88;5076311;28;45534;-84
2021/10/21 11:50:37;;;;;;;;;1.25;1.00;;;;;15.35;65.39;100374.69;5076146;28;46731;-81
2021/10/21 11:53:03;;;;;;;;;2.00;1.00;;;;;15.34;65.80;100367.75;5076065;28;47284;-84
2021/10/21 11:55:30;;;;;;;;;3.75;1.00;;;;;15.27;65.76;100350.84;5074796;28;45703;-80
2021/10/21 11:57:56;;;;;;;;;3.00;1.00;;;;;15.28;66.17;100344.56;5074653;28;45553;-83
2021/10/21 12:00:27;;;;;;;;;1.50;0.00;;;;;15.25;65.98;100336.97;5074619;28;45939;-83
2021/10/21 12:02:59;;;;;;;;;2.00;1.00;;;;;15.24;66.01;100351.13;5074468;28;46174;-83
2021/10/21 12:05:33;;;;;;;;;2.00;1.00;;;;;15.22;66.38;100331.16;5074549;28;45624;-81
2021/10/21 12:08:00;;;;;;;;;2.00;1.00;;;;;15.20;66.46;100327.81;5075049;28;45517;-85
2021/10/21 12:10:31;;;;;;;;;1.75;1.00;;;;;15.22;65.98;100333.78;5075306;28;46434;-83
2021/10/21 12:12:57;;;;;;;;;1.00;1.00;;;;;15.22;66.36;100329.34;5075066;28;46330;-84
2021/10/21 12:15:25;;;;;;;;;1.25;1.00;;;;;15.08;66.08;100309.53;5076257;28;45681;-84
2021/10/21 12:17:51;;;;;;;;;1.00;0.25;;;;;15.21;66.32;100332.13;5075409;28;45546;-82
2021/10/21 12:20:30;;;;;;;;;1.75;1.00;;;;;15.20;66.44;100326.00;5076697;28;45946;-82
2021/10/21 12:22:56;;;;;;;;;2.00;1.00;;;;;15.15;66.03;100333.53;5077927;28;47573;-82
2021/10/21 12:25:34;;;;;;;;;3.00;2.00;;;;;15.15;66.70;100320.34;5075974;28;45420;-85
2021/10/21 12:28:01;;;;;;;;;3.00;1.25;;;;;15.17;66.62;100328.94;5076049;28;45668;-85
2021/10/21 12:30:26;;;;;;;;;2.25;1.00;;;;;15.15;66.86;100322.97;5075495;28;46499;-84
2021/10/21 12:33:14;;;;;;;;;3.00;2.25;;;;;15.13;66.89;100327.56;5076578;28;45657;-82
2021/10/21 12:36:06;;;;;;;;;1.75;1.00;;;;;15.02;67.08;100306.63;5079033;28;45743;-83
2021/10/21 12:38:43;;;;;;;;;2.00;2.00;;;;;15.07;67.10;100326.34;5081497;28;45681;-86
2021/10/21 12:41:09;;;;;;;;;1.50;1.00;;;;;15.05;67.15;100325.66;5087149;28;46246;-83
2021/10/21 12:43:35;;;;;;;;;1.25;1.25;;;;;15.04;67.23;100336.34;5092225;28;45377;-84
2021/10/21 12:46:01;;;;;;;;;2.75;2.75;;;;;15.00;67.57;100330.53;5100168;28;45257;-79
2021/10/21 12:48:28;;;;;;;;;2.00;1.50;;;;;14.98;68.14;100336.94;5100645;28;45274;-78
2021/10/21 12:51:07;;;;;;;;;3.00;2.00;;;;;14.87;68.46;100322.09;5093061;28;45819;-83
2021/10/21 12:53:33;;;;;;;;;1.00;1.00;;;;;14.88;68.45;100331.69;5087412;28;45432;-78
2021/10/21 12:56:22;;;;;;;;;1.75;1.50;;;;;14.82;69.18;100332.25;5097250;28;45660;-79